createdAt,value
2022-08-26T00:01:57.861Z,19.84
2022-08-26T00:04:26.593Z,19.80
2022-08-26T00:06:56.346Z,19.64
2022-08-26T00:09:25.350Z,19.59
2022-08-26T00:11:54.580Z,19.62
2022-08-26T00:14:28.274Z,19.57
2022-08-26T00:16:59.563Z,19.41
2022-08-26T00:19:27.710Z,19.37
2022-08-26T00:21:55.807Z,19.31
2022-08-26T00:24:23.845Z,19.34
2022-08-26T00:26:55.205Z,19.25
2022-08-26T00:29:23.212Z,19.17
2022-08-26T00:31:51.392Z,18.95
2022-08-26T00:34:20.824Z,18.90
2022-08-26T00:36:51.988Z,19.02
2022-08-26T00:39:21.150Z,19.07
2022-08-26T00:41:49.136Z,18.97
2022-08-26T00:44:18.484Z,19.11
2022-08-26T00:46:50.181Z,19.21
2022-08-26T00:49:22.848Z,19.22
2022-08-26T00:51:53.777Z,19.20
2022-08-26T00:54:26.750Z,19.05
2022-08-26T00:56:59.938Z,19.11
2022-08-26T00:59:32.654Z,19.06
2022-08-26T01:02:02.890Z,19.11
2022-08-26T01:04:36.285Z,19.12
2022-08-26T01:07:05.456Z,19.12
2022-08-26T01:09:33.851Z,19.11
2022-08-26T01:12:03.536Z,19.10
2022-08-26T01:14:36.709Z,19.12
2022-08-26T01:17:07.241Z,19.31
2022-08-26T01:19:42.488Z,19.35
2022-08-26T01:22:16.845Z,19.30
2022-08-26T01:24:47.258Z,19.08
2022-08-26T01:27:20.660Z,18.86
2022-08-26T01:29:50.439Z,19.00
2022-08-26T01:32:23.455Z,18.92
2022-08-26T01:34:51.891Z,18.74
2022-08-26T01:37:21.707Z,18.89
2022-08-26T01:39:56.409Z,18.42
2022-08-26T01:42:27.373Z,18.35
2022-08-26T01:45:01.120Z,18.38
2022-08-26T01:47:32.333Z,18.22
2022-08-26T01:50:03.361Z,18.11
2022-08-26T01:52:35.524Z,18.22
2022-08-26T01:55:06.761Z,18.22
2022-08-26T01:57:37.243Z,18.23
2022-08-26T02:00:08.844Z,18.10
2022-08-26T02:02:36.909Z,18.06
2022-08-26T02:05:07.831Z,18.22
2022-08-26T02:07:35.772Z,17.94
2022-08-26T02:10:07.089Z,17.91
2022-08-26T02:12:35.352Z,18.13
2022-08-26T02:15:08.526Z,18.48
2022-08-26T02:17:42.550Z,18.24
2022-08-26T02:20:15.006Z,18.11
2022-08-26T02:22:45.870Z,17.92
2022-08-26T02:25:23.068Z,17.74
2022-08-26T02:27:51.491Z,17.63
2022-08-26T02:30:23.506Z,17.47
2022-08-26T02:32:51.892Z,17.57
2022-08-26T02:35:22.221Z,17.77
2022-08-26T02:37:52.151Z,17.93
2022-08-26T02:40:25.344Z,17.94
2022-08-26T02:42:56.001Z,17.67
2022-08-26T02:45:26.332Z,17.67
2022-08-26T02:47:55.827Z,17.81
2022-08-26T02:50:25.705Z,17.82
2022-08-26T02:52:54.242Z,17.55
2022-08-26T02:55:24.787Z,17.40
2022-08-26T02:57:53.208Z,17.37
2022-08-26T03:00:21.573Z,17.40
2022-08-26T03:02:51.851Z,17.50
2022-08-26T03:05:22.169Z,17.50
2022-08-26T03:07:52.680Z,17.44
2022-08-26T03:10:23.727Z,17.26
2022-08-26T03:12:54.086Z,17.16
2022-08-26T03:15:22.380Z,17.63
2022-08-26T03:17:50.791Z,17.44
2022-08-26T03:20:19.277Z,17.32
2022-08-26T03:22:47.444Z,17.43
2022-08-26T03:25:18.611Z,17.55
2022-08-26T03:27:47.996Z,17.42
2022-08-26T03:30:34.804Z,17.28
2022-08-26T03:33:03.421Z,17.64
2022-08-26T03:35:32.804Z,17.51
2022-08-26T03:38:01.206Z,17.31
2022-08-26T03:40:30.248Z,17.44
2022-08-26T03:42:59.692Z,17.42
2022-08-26T03:45:28.069Z,17.36
2022-08-26T03:47:56.076Z,17.29
2022-08-26T03:50:27.250Z,17.40
2022-08-26T03:52:56.421Z,17.31
2022-08-26T03:55:26.933Z,17.15
2022-08-26T03:57:55.897Z,17.01
2022-08-26T04:00:25.529Z,17.29
2022-08-26T04:02:53.893Z,17.27
2022-08-26T04:05:23.599Z,17.30
2022-08-26T04:07:52.338Z,17.55
2022-08-26T04:10:28.537Z,17.52
2022-08-26T04:12:58.792Z,17.47
2022-08-26T04:15:28.804Z,17.36
2022-08-26T04:17:57.382Z,17.13
2022-08-26T04:20:25.860Z,17.41
2022-08-26T04:22:53.891Z,17.42
2022-08-26T04:25:22.603Z,17.05
2022-08-26T04:27:52.376Z,16.88
2022-08-26T04:30:21.292Z,17.05
2022-08-26T04:32:51.080Z,17.20
2022-08-26T04:35:22.804Z,16.92
2022-08-26T04:37:53.954Z,16.73
2022-08-26T04:40:22.032Z,17.01
2022-08-26T04:42:50.351Z,16.74
2022-08-26T04:45:22.571Z,16.60
2022-08-26T04:47:56.443Z,16.49
2022-08-26T04:50:26.593Z,16.63
2022-08-26T04:52:55.442Z,16.95
2022-08-26T04:55:38.537Z,16.92
2022-08-26T04:58:10.742Z,16.70
2022-08-26T05:00:39.532Z,16.78
2022-08-26T05:03:10.218Z,16.75
2022-08-26T05:05:40.115Z,16.65
2022-08-26T05:08:08.482Z,16.77
2022-08-26T05:10:41.291Z,16.90
2022-08-26T05:13:10.952Z,16.91
2022-08-26T05:15:39.834Z,17.07
2022-08-26T05:18:11.585Z,17.06
2022-08-26T05:20:41.070Z,17.05
2022-08-26T05:23:09.406Z,16.94
2022-08-26T05:25:39.013Z,17.07
2022-08-26T05:28:07.827Z,17.14
2022-08-26T05:30:36.041Z,17.27
2022-08-26T05:33:04.734Z,17.39
2022-08-26T05:35:35.034Z,17.51
2022-08-26T05:38:03.997Z,17.33
2022-08-26T05:40:36.789Z,17.39
2022-08-26T05:43:10.482Z,17.51
2022-08-26T05:45:42.336Z,17.71
2022-08-26T05:48:14.601Z,17.89
2022-08-26T05:50:46.734Z,17.97
2022-08-26T05:53:17.503Z,18.12
2022-08-26T05:55:49.732Z,18.23
2022-08-26T05:58:20.302Z,18.28
2022-08-26T06:00:57.181Z,18.45
2022-08-26T06:03:27.571Z,18.59
2022-08-26T06:05:57.049Z,18.80
2022-08-26T06:08:25.749Z,19.06
2022-08-26T06:10:56.687Z,19.28
2022-08-26T06:13:27.175Z,19.40
2022-08-26T06:15:59.375Z,19.62
2022-08-26T06:18:32.640Z,19.66
2022-08-26T06:21:03.457Z,19.85
2022-08-26T06:23:48.795Z,20.05
2022-08-26T06:26:18.608Z,20.28
2022-08-26T06:28:47.156Z,20.38
2022-08-26T06:31:15.955Z,20.64
2022-08-26T06:33:44.471Z,20.86
2022-08-26T06:36:19.494Z,21.13
2022-08-26T06:38:48.579Z,21.24
2022-08-26T06:41:17.093Z,21.23
2022-08-26T06:43:45.903Z,21.37
2022-08-26T06:46:16.645Z,21.48
2022-08-26T06:48:45.256Z,21.62
2022-08-26T06:51:14.971Z,21.74
2022-08-26T06:53:47.020Z,21.73
2022-08-26T06:56:18.997Z,21.78
2022-08-26T06:58:47.112Z,21.68
2022-08-26T07:01:20.001Z,21.61
2022-08-26T07:03:49.257Z,21.71
2022-08-26T07:06:19.793Z,21.76
2022-08-26T07:08:50.418Z,21.93
2022-08-26T07:11:20.161Z,22.04
2022-08-26T07:13:48.932Z,22.27
2022-08-26T07:16:18.706Z,22.42
2022-08-26T07:18:48.622Z,22.65
2022-08-26T07:21:18.421Z,22.94
2022-08-26T07:23:48.988Z,22.97
2022-08-26T07:26:19.056Z,23.17
2022-08-26T07:28:48.811Z,23.24
2022-08-26T07:31:17.897Z,23.23
2022-08-26T07:33:46.900Z,23.33
2022-08-26T07:36:16.094Z,23.54
2022-08-26T07:38:45.565Z,23.38
2022-08-26T07:41:16.998Z,23.40
2022-08-26T07:43:46.211Z,23.32
2022-08-26T07:46:20.845Z,23.34
2022-08-26T07:48:56.503Z,23.42
2022-08-26T07:51:25.094Z,23.51
2022-08-26T07:53:56.992Z,23.26
2022-08-26T07:56:54.412Z,23.17
2022-08-26T07:59:27.288Z,23.30
2022-08-26T08:02:02.166Z,23.21
2022-08-26T08:04:31.471Z,23.32
2022-08-26T08:06:59.686Z,23.30
2022-08-26T08:09:31.282Z,23.28
2022-08-26T08:12:00.901Z,23.59
2022-08-26T08:14:33.502Z,23.74
2022-08-26T08:17:07.796Z,23.71
2022-08-26T08:22:58.092Z,23.74
2022-08-26T08:25:58.927Z,23.89
2022-08-26T08:29:00.886Z,23.92
2022-08-26T08:31:58.511Z,23.63
2022-08-26T08:34:32.941Z,23.81
2022-08-26T08:46:01.816Z,23.96
2022-08-26T08:48:37.015Z,23.76
2022-08-26T09:02:37.687Z,24.03
2022-08-26T09:52:40.514Z,25.59
2022-08-26T10:04:15.900Z,25.37
2022-08-26T10:06:56.961Z,25.57
2022-08-26T10:09:29.881Z,25.79
2022-08-26T10:12:04.613Z,25.67
2022-08-26T10:14:40.088Z,25.85
2022-08-26T10:17:30.805Z,25.59
2022-08-26T10:22:54.292Z,25.82
2022-08-26T10:25:29.234Z,25.61
2022-08-26T10:28:05.821Z,25.89
2022-08-26T10:30:39.382Z,25.67
2022-08-26T10:37:33.444Z,26.16
2022-08-26T10:43:40.827Z,25.92
2022-08-26T10:49:07.822Z,26.75
2022-08-26T10:59:10.341Z,26.53
2022-08-26T11:02:03.947Z,26.60
2022-08-26T11:05:56.252Z,26.13
2022-08-26T11:08:34.708Z,26.92
2022-08-26T11:14:58.787Z,27.31
2022-08-26T11:18:23.096Z,27.86
2022-08-26T11:21:05.065Z,27.75
2022-08-26T11:24:08.969Z,27.79
2022-08-26T11:26:55.564Z,27.40
2022-08-26T11:29:59.385Z,28.11
2022-08-26T11:32:46.175Z,28.29
2022-08-26T11:35:52.269Z,27.92
2022-08-26T11:38:26.734Z,28.32
2022-08-26T11:41:18.613Z,28.55
2022-08-26T11:43:49.480Z,29.26
2022-08-26T11:46:25.653Z,28.65
2022-08-26T11:49:02.197Z,28.64
2022-08-26T11:51:32.900Z,29.03
2022-08-26T11:54:12.182Z,28.63
2022-08-26T11:56:42.166Z,28.22
2022-08-26T11:59:12.636Z,28.76
2022-08-26T12:01:44.374Z,28.75
2022-08-26T12:04:18.831Z,28.71
2022-08-26T12:06:52.134Z,29.47
2022-08-26T12:09:23.598Z,29.37
2022-08-26T12:11:52.840Z,29.84
2022-08-26T12:14:27.779Z,29.47
2022-08-26T12:17:10.300Z,29.49
2022-08-26T12:19:38.594Z,29.46
2022-08-26T12:22:16.224Z,29.44
2022-08-26T12:24:48.837Z,30.08
2022-08-26T12:27:22.167Z,30.13
2022-08-26T12:30:03.325Z,30.25
2022-08-26T12:32:35.515Z,29.80
2022-08-26T12:37:39.922Z,30.25
2022-08-26T12:40:32.746Z,30.90
2022-08-26T12:43:02.167Z,31.04
2022-08-26T12:45:32.949Z,31.14
2022-08-26T12:48:03.758Z,30.77
2022-08-26T12:50:34.138Z,30.97
2022-08-26T12:53:07.120Z,31.07
2022-08-26T12:55:39.424Z,30.85
2022-08-26T12:58:22.158Z,30.31
2022-08-26T13:00:50.887Z,30.46
2022-08-26T13:03:46.644Z,30.91
2022-08-26T13:06:27.972Z,30.70
2022-08-26T13:08:59.782Z,30.09
2022-08-26T13:11:30.037Z,30.88
2022-08-26T13:14:00.406Z,31.02
2022-08-26T13:16:30.543Z,31.32
2022-08-26T13:19:01.915Z,30.43
2022-08-26T13:21:37.425Z,31.36
2022-08-26T13:24:11.779Z,30.30
2022-08-26T13:26:39.914Z,30.91
2022-08-26T13:29:10.388Z,31.00
2022-08-26T13:31:41.265Z,31.33
2022-08-26T13:34:10.718Z,30.65
2022-08-26T13:36:39.435Z,29.76
2022-08-26T13:39:09.336Z,30.93
2022-08-26T13:41:37.625Z,31.05
2022-08-26T13:44:07.588Z,31.49
2022-08-26T13:46:35.888Z,31.20
2022-08-26T13:49:04.372Z,31.52
2022-08-26T13:51:41.938Z,31.21
2022-08-26T14:30:57.139Z,28.45
2022-08-26T14:33:31.889Z,28.30
2022-08-26T14:36:20.525Z,28.10
2022-08-26T14:38:48.694Z,28.24
2022-08-26T14:41:24.782Z,28.45
2022-08-26T14:43:58.053Z,27.60
2022-08-26T14:46:30.289Z,27.51
2022-08-26T14:49:02.001Z,27.10
2022-08-26T14:51:30.687Z,27.23
2022-08-26T14:54:14.012Z,27.09
2022-08-26T14:56:46.348Z,27.21
2022-08-26T14:59:16.158Z,26.86
2022-08-26T15:01:52.108Z,27.00
2022-08-26T15:04:23.880Z,26.73
2022-08-26T15:06:53.596Z,27.40
2022-08-26T15:09:22.442Z,27.09
2022-08-26T15:11:51.659Z,27.68
2022-08-26T15:14:20.131Z,27.66
2022-08-26T15:16:51.581Z,28.09
2022-08-26T15:19:19.734Z,27.98
2022-08-26T15:21:48.650Z,27.58
2022-08-26T15:24:20.865Z,27.44
2022-08-26T15:26:50.295Z,27.44
2022-08-26T15:29:18.815Z,27.53
2022-08-26T15:31:57.171Z,27.51
2022-08-26T15:34:36.253Z,27.46
2022-08-26T15:39:47.668Z,26.82
2022-08-26T15:45:49.016Z,27.52
2022-08-26T15:48:17.237Z,27.36
2022-08-26T15:50:52.723Z,27.19
2022-08-26T15:53:23.905Z,27.19
2022-08-26T15:55:57.593Z,27.20
2022-08-26T15:58:27.018Z,27.78
2022-08-26T16:01:00.072Z,28.00
2022-08-26T16:03:49.755Z,27.59
2022-08-26T16:08:19.696Z,27.33
2022-08-26T16:09:34.418Z,27.55
2022-08-26T16:12:02.796Z,27.54
2022-08-26T16:14:31.401Z,27.77
2022-08-26T16:17:05.615Z,27.47
2022-08-26T16:20:55.321Z,27.50
2022-08-26T16:27:00.460Z,27.14
2022-08-26T16:29:43.334Z,27.22
2022-08-26T16:35:46.321Z,26.60
2022-08-26T16:38:58.518Z,26.41
2022-08-26T16:41:31.779Z,26.13
2022-08-26T16:44:55.841Z,26.21
2022-08-26T16:50:06.720Z,26.13
2022-08-26T16:52:35.066Z,25.79
2022-08-26T16:55:28.562Z,25.98
2022-08-26T16:57:58.279Z,25.74
2022-08-26T17:04:47.295Z,25.75
2022-08-26T17:07:34.973Z,25.31
2022-08-26T17:10:03.951Z,25.17
2022-08-26T17:12:35.462Z,25.27
2022-08-26T17:15:06.696Z,25.16
2022-08-26T17:17:36.216Z,24.38
2022-08-26T17:28:17.883Z,22.95
2022-08-26T17:30:47.404Z,22.60
2022-08-26T17:39:15.783Z,22.89
2022-08-26T17:42:00.678Z,22.59
2022-08-26T17:45:25.772Z,22.74
2022-08-26T17:52:33.219Z,22.53
2022-08-26T17:55:01.501Z,22.31
2022-08-26T17:57:30.679Z,22.45
2022-08-26T18:00:00.550Z,22.20
2022-08-26T18:08:03.380Z,22.08
2022-08-26T18:10:31.508Z,22.59
2022-08-26T18:12:59.640Z,22.08
2022-08-26T18:15:27.641Z,21.89
2022-08-26T18:17:55.662Z,21.59
2022-08-26T18:20:23.874Z,21.45
2022-08-26T18:22:54.221Z,21.61
2022-08-26T18:25:23.767Z,21.71
2022-08-26T18:27:51.784Z,21.73
2022-08-26T18:30:23.081Z,21.31
2022-08-26T18:32:52.299Z,21.40
2022-08-26T18:35:21.392Z,21.41
2022-08-26T18:37:49.489Z,21.33
2022-08-26T18:40:17.736Z,21.36
2022-08-26T18:42:47.200Z,21.39
2022-08-26T18:45:23.427Z,21.23
2022-08-26T18:47:51.667Z,21.17
2022-08-26T18:50:19.975Z,20.93
2022-08-26T18:52:48.249Z,20.88
2022-08-26T18:55:16.630Z,20.87
2022-08-26T18:57:46.470Z,20.68
2022-08-26T19:00:15.433Z,20.26
2022-08-26T19:06:02.899Z,20.06
2022-08-26T19:16:49.118Z,19.91
2022-08-26T19:45:37.185Z,19.34
2022-08-26T19:48:30.930Z,19.63
2022-08-26T19:50:59.396Z,19.23
2022-08-26T19:53:27.605Z,19.32
2022-08-26T19:55:55.966Z,19.00
2022-08-26T19:58:24.318Z,19.17
2022-08-26T20:00:54.014Z,19.27
2022-08-26T20:03:23.419Z,19.37
2022-08-26T20:05:52.044Z,19.23
2022-08-26T20:08:22.467Z,19.32
2022-08-26T20:10:51.077Z,19.28
2022-08-26T20:13:19.817Z,19.22
2022-08-26T20:15:47.961Z,19.08
2022-08-26T20:18:35.002Z,19.22
2022-08-26T20:21:20.170Z,19.27
2022-08-26T20:23:48.688Z,19.13
2022-08-26T20:26:16.738Z,19.07
2022-08-26T20:28:44.800Z,19.23
2022-08-26T20:31:13.105Z,19.31
2022-08-26T20:33:46.325Z,19.26
2022-08-26T20:36:15.625Z,19.13
2022-08-26T20:38:45.307Z,19.06
2022-08-26T20:41:13.550Z,19.01
2022-08-26T20:43:42.880Z,18.98
2022-08-26T20:46:18.819Z,18.83
2022-08-26T20:48:50.066Z,18.75
2022-08-26T20:51:19.813Z,18.74
2022-08-26T20:53:48.140Z,18.74
2022-08-26T20:56:21.846Z,18.77
2022-08-26T20:58:50.616Z,18.73
2022-08-26T21:01:20.921Z,18.67
2022-08-26T21:03:51.907Z,18.66
2022-08-26T21:06:20.307Z,18.59
2022-08-26T21:08:48.565Z,18.57
2022-08-26T21:11:17.363Z,18.47
2022-08-26T21:14:03.793Z,18.59
2022-08-26T21:16:33.318Z,18.54
2022-08-26T21:19:03.032Z,18.57
2022-08-26T21:21:31.041Z,18.48
2022-08-26T21:23:59.061Z,18.49
2022-08-26T21:26:27.802Z,18.52
2022-08-26T21:28:55.822Z,18.52
2022-08-26T21:31:26.472Z,18.54
2022-08-26T21:33:54.919Z,18.57
2022-08-26T21:36:24.417Z,18.61
2022-08-26T21:38:52.481Z,18.61
2022-08-26T21:41:22.676Z,18.13
2022-08-26T21:43:51.941Z,17.81
2022-08-26T21:46:22.085Z,17.78
2022-08-26T21:48:51.724Z,17.89
2022-08-26T21:51:22.963Z,17.98
2022-08-26T21:53:53.523Z,18.06
2022-08-26T21:56:23.092Z,17.90
2022-08-26T21:58:52.450Z,17.96
2022-08-26T22:01:23.023Z,18.00
2022-08-26T22:03:52.661Z,18.09
2022-08-26T22:06:23.434Z,18.26
2022-08-26T22:08:54.070Z,18.45
2022-08-26T22:11:22.317Z,18.44
2022-08-26T22:13:52.322Z,18.48
2022-08-26T22:16:20.933Z,18.57
2022-08-26T22:18:49.156Z,18.32
2022-08-26T22:21:20.035Z,18.40
2022-08-26T22:23:48.509Z,18.17
2022-08-26T22:26:25.470Z,18.23
2022-08-26T22:28:58.794Z,18.49
2022-08-26T22:31:37.577Z,18.53
2022-08-26T22:34:07.932Z,18.66
2022-08-26T22:36:39.802Z,18.88
2022-08-26T22:39:12.610Z,18.95
2022-08-26T22:41:42.215Z,18.90
2022-08-26T22:44:11.842Z,19.01
2022-08-26T22:46:41.310Z,18.95
2022-08-26T22:49:09.968Z,18.93
2022-08-26T22:51:38.079Z,18.92
2022-08-26T22:54:06.728Z,18.85
2022-08-26T22:56:36.018Z,18.85
2022-08-26T22:59:06.885Z,18.79
2022-08-26T23:01:36.980Z,18.74
2022-08-26T23:04:07.403Z,18.78
2022-08-26T23:06:36.880Z,18.82
2022-08-26T23:09:05.670Z,18.87
2022-08-26T23:11:34.137Z,18.79
2022-08-26T23:14:02.332Z,18.72
2022-08-26T23:16:38.014Z,18.79
2022-08-26T23:19:08.240Z,18.88
2022-08-26T23:21:36.408Z,18.55
2022-08-26T23:24:05.225Z,18.75
2022-08-26T23:26:33.681Z,18.67
2022-08-26T23:29:02.726Z,18.75
2022-08-26T23:31:30.915Z,18.91
2022-08-26T23:34:20.370Z,18.91
2022-08-26T23:36:48.543Z,18.89
2022-08-26T23:39:16.700Z,18.92
2022-08-26T23:41:44.687Z,18.96
2022-08-26T23:44:13.538Z,18.95
2022-08-26T23:46:41.641Z,18.99
2022-08-26T23:49:11.041Z,19.07
2022-08-26T23:51:56.881Z,19.03
2022-08-26T23:54:24.891Z,19.05
2022-08-26T23:56:52.945Z,19.14
2022-08-26T23:59:21.396Z,19.08
